Terminal Aerodrome Forecast
Issued by NWS Louisville, KY

Home | Current Version | Previous Version | Text Only | Print | Product List | Glossary On
Versions: 1 2 3 4 5 6 7 8 9 10 11 12 13 14 15 16 17 18 19 20
395
FTUS43 KLMK 041123
TAFSDF
TAF
KSDF 041123Z 0412/0518 22006KT P6SM BKN090
     FM041400 23012G18KT P6SM -SHRA BKN030
     FM041600 25012G18KT 5SM -SHRA BR BKN015
     FM041900 29013G19KT P6SM VCSH BKN021
     FM042200 32012KT P6SM BKN035=

USA.gov is the U.S. government's official web portal to all federal, state and local government web resources and services.